createdAt,value
2022-08-10T00:01:52.974Z,2.38
2022-08-10T00:04:23.713Z,2.20
2022-08-10T00:06:53.242Z,2.65
2022-08-10T00:09:21.071Z,2.47
2022-08-10T00:11:47.717Z,2.25
2022-08-10T00:14:14.381Z,2.65
2022-08-10T00:16:41.024Z,2.35
2022-08-10T00:19:07.698Z,3.55
2022-08-10T00:21:34.411Z,2.53
2022-08-10T00:24:01.156Z,2.53
2022-08-10T00:27:52.855Z,2.10
2022-08-10T00:29:14.646Z,3.30
2022-08-10T00:31:58.537Z,2.95
2022-08-10T00:34:30.599Z,2.10
2022-08-10T00:36:58.159Z,2.70
2022-08-10T00:39:26.023Z,2.20
2022-08-10T00:42:07.380Z,3.13
2022-08-10T00:44:43.740Z,2.33
2022-08-10T00:47:36.499Z,2.20
2022-08-10T00:49:58.894Z,2.17
2022-08-10T00:52:27.500Z,2.92
2022-08-10T00:54:55.198Z,2.47
2022-08-10T00:57:22.619Z,2.10
2022-08-10T00:59:58.778Z,3.15
2022-08-10T01:02:31.040Z,2.67
2022-08-10T01:05:07.790Z,2.50
2022-08-10T01:07:46.435Z,2.78
2022-08-10T01:10:27.140Z,2.60
2022-08-10T01:13:01.576Z,3.03
2022-08-10T01:18:18.645Z,2.20
2022-08-10T01:21:23.572Z,2.50
2022-08-10T01:23:56.136Z,2.30
2022-08-10T01:26:59.797Z,2.40
2022-08-10T01:29:26.412Z,2.63
2022-08-10T01:32:01.156Z,2.38
2022-08-10T01:34:36.844Z,2.58
2022-08-10T01:37:14.792Z,2.90
2022-08-10T01:39:46.820Z,2.50
2022-08-10T01:42:16.891Z,2.85
2022-08-10T01:44:49.989Z,2.70
2022-08-10T01:47:37.389Z,2.90
2022-08-10T01:50:15.217Z,2.70
2022-08-10T01:52:45.459Z,2.53
2022-08-10T01:55:16.000Z,3.17
2022-08-10T01:57:45.760Z,2.33
2022-08-10T02:00:13.760Z,3.03
2022-08-10T02:02:43.111Z,2.63
2022-08-10T02:05:12.056Z,2.97
2022-08-10T02:07:41.385Z,2.88
2022-08-10T02:10:11.647Z,2.85
2022-08-10T02:12:41.116Z,2.58
2022-08-10T02:15:12.951Z,2.47
2022-08-10T02:18:00.250Z,2.45
2022-08-10T02:20:39.930Z,2.60
2022-08-10T02:23:11.729Z,2.88
2022-08-10T02:25:43.593Z,2.75
2022-08-10T02:28:27.083Z,3.00
2022-08-10T02:30:59.548Z,2.60
2022-08-10T02:33:27.767Z,3.40
2022-08-10T02:35:58.519Z,2.50
2022-08-10T02:38:59.181Z,2.75
2022-08-10T02:45:09.020Z,2.70
2022-08-10T02:45:22.577Z,2.80
2022-08-10T02:48:05.626Z,2.70
2022-08-10T02:50:35.042Z,2.83
2022-08-10T02:53:54.608Z,2.53
2022-08-10T02:56:24.852Z,2.50
2022-08-10T02:59:05.524Z,2.80
2022-08-10T03:01:39.067Z,2.45
2022-08-10T03:04:11.902Z,3.00
2022-08-10T03:06:44.471Z,2.80
2022-08-10T03:09:15.223Z,2.53
2022-08-10T03:12:37.478Z,2.58
2022-08-10T03:14:34.279Z,2.53
2022-08-10T03:17:04.040Z,2.47
2022-08-10T03:20:34.707Z,2.47
2022-08-10T03:22:22.526Z,2.88
2022-08-10T03:24:51.544Z,2.58
2022-08-10T03:27:19.108Z,2.38
2022-08-10T03:30:29.750Z,2.75
2022-08-10T03:32:35.736Z,2.78
2022-08-10T03:35:03.056Z,2.42
2022-08-10T03:37:29.998Z,2.15
2022-08-10T03:39:57.179Z,2.20
2022-08-10T03:42:25.004Z,3.00
2022-08-10T03:44:53.346Z,2.75
2022-08-10T03:47:24.624Z,2.72
2022-08-10T03:49:52.402Z,2.50
2022-08-10T03:52:22.073Z,2.92
2022-08-10T03:54:51.719Z,2.40
2022-08-10T03:57:20.548Z,2.78
2022-08-10T03:59:47.435Z,2.80
2022-08-10T04:02:43.692Z,2.50
2022-08-10T04:05:01.244Z,2.58
2022-08-10T04:07:29.536Z,2.67
2022-08-10T04:09:56.537Z,2.20
2022-08-10T04:12:25.597Z,2.63
2022-08-10T04:14:53.471Z,2.28
2022-08-10T04:17:57.179Z,2.83
2022-08-10T04:20:18.448Z,2.42
2022-08-10T04:22:48.825Z,2.60
2022-08-10T04:25:16.601Z,2.60
2022-08-10T04:27:44.557Z,2.58
2022-08-10T04:30:13.784Z,2.55
2022-08-10T04:32:42.290Z,2.75
2022-08-10T04:35:10.973Z,2.70
2022-08-10T04:37:46.960Z,2.58
2022-08-10T04:40:29.966Z,2.95
2022-08-10T04:43:12.206Z,2.47
2022-08-10T04:45:47.268Z,2.97
2022-08-10T04:48:42.084Z,2.53
2022-08-10T04:51:04.914Z,3.13
2022-08-10T04:53:34.204Z,2.90
2022-08-10T04:56:31.644Z,2.72
2022-08-10T04:58:59.324Z,3.20
2022-08-10T05:01:26.105Z,2.58
2022-08-10T05:04:35.170Z,2.83
2022-08-10T05:06:40.112Z,2.53
2022-08-10T05:09:06.797Z,3.13
2022-08-10T05:11:33.560Z,3.17
2022-08-10T05:14:00.477Z,2.50
2022-08-10T05:16:32.036Z,2.85
2022-08-10T05:18:59.617Z,2.65
2022-08-10T05:22:02.504Z,2.83
2022-08-10T05:24:15.348Z,2.72
2022-08-10T05:27:00.598Z,3.00
2022-08-10T05:29:29.141Z,2.85
2022-08-10T05:31:56.301Z,3.00
2022-08-10T05:34:27.630Z,3.15
2022-08-10T05:36:55.681Z,2.92
2022-08-10T05:39:30.373Z,2.60
2022-08-10T05:42:01.255Z,2.70
2022-08-10T05:44:29.350Z,3.20
2022-08-10T05:46:56.439Z,2.90
2022-08-10T05:49:23.191Z,2.78
2022-08-10T05:51:50.433Z,2.65
2022-08-10T05:54:19.336Z,3.00
2022-08-10T05:56:55.715Z,2.67
2022-08-10T06:00:29.410Z,3.00
2022-08-10T06:02:48.068Z,2.72
2022-08-10T06:05:20.700Z,3.47
2022-08-10T06:07:55.609Z,3.15
2022-08-10T06:10:31.229Z,2.65
2022-08-10T06:13:30.297Z,3.55
2022-08-10T06:16:06.070Z,3.55
2022-08-10T06:18:33.133Z,3.22
2022-08-10T06:21:01.029Z,2.88
2022-08-10T06:23:32.099Z,2.78
2022-08-10T06:26:11.097Z,2.70
2022-08-10T06:29:02.332Z,3.45
2022-08-10T06:31:48.210Z,3.17
2022-08-10T06:34:21.580Z,3.45
2022-08-10T06:36:48.671Z,3.20
2022-08-10T06:39:34.130Z,3.30
2022-08-10T06:42:18.337Z,2.95
2022-08-10T06:45:19.488Z,2.55
2022-08-10T06:47:52.216Z,3.30
2022-08-10T06:50:56.265Z,2.90
2022-08-10T06:53:53.401Z,2.83
2022-08-10T06:56:36.480Z,2.78
2022-08-10T06:59:15.545Z,2.95
2022-08-10T07:01:53.352Z,2.97
2022-08-10T07:04:32.754Z,2.65
2022-08-10T07:07:04.557Z,2.63
2022-08-10T07:09:35.456Z,3.10
2022-08-10T07:12:08.564Z,3.30
2022-08-10T07:14:42.108Z,3.10
2022-08-10T07:17:19.896Z,3.10
2022-08-10T07:19:52.068Z,3.00
2022-08-10T07:23:26.875Z,2.60
2022-08-10T07:25:12.451Z,2.70
2022-08-10T07:27:59.574Z,2.85
2022-08-10T07:30:29.030Z,3.22
2022-08-10T07:32:56.768Z,2.72
2022-08-10T07:35:26.677Z,3.33
2022-08-10T07:37:55.346Z,3.20
2022-08-10T07:40:23.639Z,2.55
2022-08-10T07:42:56.361Z,2.28
2022-08-10T07:45:24.392Z,3.47
2022-08-10T07:48:27.888Z,2.80
2022-08-10T07:50:59.369Z,3.42
2022-08-10T07:53:35.572Z,3.53
2022-08-10T07:56:20.880Z,3.22
2022-08-10T07:59:02.409Z,2.60
2022-08-10T08:01:33.539Z,2.90
2022-08-10T08:04:05.347Z,2.40
2022-08-10T08:06:40.261Z,2.78
2022-08-10T08:09:07.031Z,3.53
2022-08-10T08:11:38.157Z,2.63
2022-08-10T08:14:09.681Z,2.33
2022-08-10T08:16:39.949Z,2.38
2022-08-10T08:19:27.913Z,2.97
2022-08-10T08:24:05.241Z,2.28
2022-08-10T08:24:44.442Z,2.45
2022-08-10T08:27:15.370Z,3.10
2022-08-10T08:29:44.778Z,2.20
2022-08-10T08:32:13.314Z,2.55
2022-08-10T08:34:43.762Z,2.42
2022-08-10T08:37:12.307Z,2.55
2022-08-10T08:39:48.133Z,1.98
2022-08-10T08:42:46.925Z,2.60
2022-08-10T08:46:09.436Z,2.22
2022-08-10T08:49:11.017Z,2.15
2022-08-10T08:52:09.675Z,2.58
2022-08-10T08:54:42.837Z,2.05
2022-08-10T08:57:51.254Z,2.00
2022-08-10T09:00:34.403Z,2.55
2022-08-10T09:03:28.102Z,2.60
2022-08-10T09:06:23.120Z,2.35
2022-08-10T09:08:52.715Z,2.22
2022-08-10T09:11:19.284Z,2.28
2022-08-10T09:13:58.056Z,2.25
2022-08-10T09:17:13.107Z,1.92
2022-08-10T09:20:17.569Z,1.73
2022-08-10T09:23:01.548Z,2.03
2022-08-10T09:25:39.389Z,1.52
2022-08-10T09:28:08.518Z,1.75
2022-08-10T09:31:18.884Z,1.42
2022-08-10T09:36:27.870Z,1.85
2022-08-10T09:37:03.304Z,1.38
2022-08-10T09:40:56.015Z,1.55
2022-08-10T09:42:33.784Z,1.80
2022-08-10T09:45:07.253Z,1.30
2022-08-10T09:48:02.347Z,1.77
2022-08-10T09:51:09.309Z,2.00
2022-08-10T09:53:48.222Z,1.90
2022-08-10T09:56:59.749Z,1.40
2022-08-10T10:00:09.114Z,2.13
2022-08-10T10:02:47.146Z,1.63
2022-08-10T10:05:39.169Z,1.50
2022-08-10T10:08:44.736Z,1.50
2022-08-10T10:11:25.213Z,1.60
2022-08-10T10:14:05.135Z,1.60
2022-08-10T10:16:43.717Z,2.13
2022-08-10T10:19:38.479Z,1.30
2022-08-10T10:22:26.191Z,1.90
2022-08-10T10:25:02.300Z,1.20
2022-08-10T10:27:58.603Z,1.50
2022-08-10T10:30:31.192Z,1.23
2022-08-10T10:33:33.364Z,1.30
2022-08-10T10:36:02.196Z,1.10
2022-08-10T10:38:38.208Z,1.17
2022-08-10T10:41:29.828Z,1.20
2022-08-10T10:44:07.650Z,1.27
2022-08-10T10:53:39.418Z,1.30
2022-08-10T10:56:27.354Z,0.90
2022-08-10T10:59:53.823Z,1.38
2022-08-10T11:02:21.445Z,1.30
2022-08-10T11:05:09.548Z,1.40
2022-08-10T11:07:45.853Z,1.48
2022-08-10T11:10:32.883Z,1.50
2022-08-10T11:14:26.970Z,1.13
2022-08-10T11:16:25.008Z,1.10
2022-08-10T11:19:13.501Z,1.10
2022-08-10T11:21:52.007Z,1.48
2022-08-10T11:24:48.016Z,1.13
2022-08-10T11:27:22.309Z,1.15
2022-08-10T11:30:08.258Z,1.20
2022-08-10T11:32:53.403Z,1.08
2022-08-10T11:35:44.739Z,1.40
2022-08-10T11:38:34.867Z,1.10
2022-08-10T11:42:07.778Z,1.23
2022-08-10T11:44:31.144Z,1.50
2022-08-10T11:47:05.023Z,1.17
2022-08-10T11:49:49.513Z,1.30
2022-08-10T11:52:25.836Z,1.13
2022-08-10T11:54:54.549Z,0.95
2022-08-10T11:57:25.305Z,1.10
2022-08-10T12:00:13.008Z,1.00
2022-08-10T12:02:46.308Z,0.90
2022-08-10T12:05:20.302Z,1.05
2022-08-10T12:08:54.538Z,1.13
2022-08-10T12:10:43.480Z,1.10
2022-08-10T12:13:16.988Z,1.33
2022-08-10T12:15:55.906Z,1.00
2022-08-10T12:18:30.748Z,1.30
2022-08-10T12:21:05.422Z,1.35
2022-08-10T12:23:46.280Z,1.23
2022-08-10T12:26:20.789Z,1.23
2022-08-10T12:29:12.824Z,1.00
2022-08-10T12:31:58.169Z,1.20
2022-08-10T12:34:45.501Z,4.80
2022-08-10T12:37:22.955Z,9.93
2022-08-10T12:44:07.013Z,2.47
2022-08-10T12:46:14.968Z,1.45
2022-08-10T12:49:00.602Z,1.05
2022-08-10T12:51:30.518Z,2.30
2022-08-10T12:54:08.172Z,1.83
2022-08-10T12:56:40.026Z,1.10
2022-08-10T12:59:09.956Z,2.08
2022-08-10T13:02:09.474Z,1.33
2022-08-10T13:04:35.609Z,1.23
2022-08-10T13:07:04.708Z,4.13
2022-08-10T13:09:34.609Z,1.00
2022-08-10T13:12:35.887Z,1.20
2022-08-10T13:15:49.870Z,1.20
2022-08-10T13:18:23.076Z,1.00
2022-08-10T13:20:55.239Z,1.27
2022-08-10T13:23:26.904Z,1.25
2022-08-10T13:25:56.901Z,1.27
2022-08-10T13:28:45.585Z,0.90
2022-08-10T13:31:21.709Z,1.10
2022-08-10T13:34:43.393Z,1.33
2022-08-10T13:37:09.449Z,0.85
2022-08-10T13:39:59.251Z,1.00
2022-08-10T13:42:32.084Z,1.05
2022-08-10T13:45:05.073Z,0.93
2022-08-10T13:47:47.972Z,1.45
2022-08-10T13:50:33.396Z,1.00
2022-08-10T13:53:09.958Z,0.90
2022-08-10T13:55:54.538Z,0.80
2022-08-10T13:58:32.456Z,1.00
2022-08-10T14:01:01.813Z,0.90
2022-08-10T14:03:34.449Z,1.00
2022-08-10T14:06:04.429Z,1.15
2022-08-10T14:08:32.826Z,1.10
2022-08-10T14:11:09.417Z,0.77
2022-08-10T14:13:43.449Z,1.00
2022-08-10T14:16:12.153Z,1.00
2022-08-10T14:18:42.294Z,0.90
2022-08-10T14:21:09.362Z,1.10
2022-08-10T14:23:41.606Z,1.30
2022-08-10T14:26:09.587Z,0.80
2022-08-10T14:28:51.374Z,0.90
2022-08-10T14:31:22.333Z,1.08
2022-08-10T14:33:54.629Z,0.80
2022-08-10T14:36:47.530Z,1.20
2022-08-10T14:39:26.868Z,1.05
2022-08-10T14:42:01.932Z,1.25
2022-08-10T14:44:45.218Z,1.10
2022-08-10T14:47:53.245Z,0.90
2022-08-10T14:50:03.462Z,0.98
2022-08-10T14:52:39.312Z,1.10
2022-08-10T14:55:19.762Z,1.17
2022-08-10T14:58:16.559Z,1.10
2022-08-10T15:00:42.839Z,1.00
2022-08-10T15:03:58.070Z,0.80
2022-08-10T15:06:06.989Z,0.90
2022-08-10T15:08:37.085Z,1.20
2022-08-10T15:11:05.248Z,1.60
2022-08-10T15:13:34.308Z,1.00
2022-08-10T15:16:13.029Z,1.13
2022-08-10T15:18:57.523Z,1.10
2022-08-10T15:21:42.905Z,1.00
2022-08-10T15:24:36.986Z,1.27
2022-08-10T15:27:09.386Z,1.23
2022-08-10T15:29:36.978Z,1.20
2022-08-10T15:32:49.381Z,1.10
2022-08-10T15:35:36.434Z,1.45
2022-08-10T15:38:06.876Z,1.27
2022-08-10T15:40:50.744Z,1.00
2022-08-10T15:43:25.192Z,1.10
2022-08-10T15:46:02.084Z,1.30
2022-08-10T15:48:40.617Z,1.77
2022-08-10T15:51:53.842Z,1.33
2022-08-10T15:54:33.339Z,1.40
2022-08-10T15:57:10.641Z,1.38
2022-08-10T16:00:00.092Z,1.48
2022-08-10T16:02:30.135Z,1.30
2022-08-10T16:05:11.312Z,1.50
2022-08-10T16:07:49.178Z,1.30
2022-08-10T16:10:28.824Z,1.33
2022-08-10T16:13:51.072Z,1.45
2022-08-10T16:15:53.501Z,1.25
2022-08-10T16:18:26.417Z,2.55
2022-08-10T16:21:01.830Z,1.42
2022-08-10T16:23:32.681Z,1.33
2022-08-10T16:26:14.849Z,1.38
2022-08-10T16:28:50.032Z,1.25
2022-08-10T16:31:22.313Z,1.80
2022-08-10T16:33:53.484Z,1.40
2022-08-10T16:36:28.860Z,1.20
2022-08-10T16:42:03.355Z,1.20
2022-08-10T16:44:17.627Z,1.42
2022-08-10T16:46:45.326Z,1.30
2022-08-10T16:49:18.015Z,1.42
2022-08-10T16:51:49.309Z,1.52
2022-08-10T16:54:24.849Z,1.27
2022-08-10T16:57:01.498Z,1.25
2022-08-10T16:59:34.145Z,1.30
2022-08-10T17:02:01.758Z,1.40
2022-08-10T17:04:31.299Z,1.58
2022-08-10T17:07:01.178Z,2.03
2022-08-10T17:09:31.953Z,2.15
2022-08-10T17:12:04.559Z,2.38
2022-08-10T17:14:31.391Z,1.95
2022-08-10T17:17:07.585Z,2.53
2022-08-10T17:19:42.484Z,2.45
2022-08-10T17:22:17.436Z,2.45
2022-08-10T17:24:48.885Z,2.97
2022-08-10T17:28:05.292Z,2.83
2022-08-10T17:30:12.443Z,2.67
2022-08-10T17:33:01.733Z,3.00
2022-08-10T17:35:32.344Z,2.50
2022-08-10T17:38:09.601Z,2.90
2022-08-10T17:40:55.568Z,2.92
2022-08-10T17:43:46.093Z,3.60
2022-08-10T17:46:14.114Z,2.75
2022-08-10T17:48:42.997Z,3.35
2022-08-10T17:51:14.086Z,2.80
2022-08-10T17:53:56.570Z,2.95
2022-08-10T17:56:25.059Z,3.25
2022-08-10T17:58:57.985Z,2.80
2022-08-10T18:01:41.263Z,2.78
2022-08-10T18:04:19.345Z,2.97
2022-08-10T18:06:53.327Z,3.10
2022-08-10T18:09:30.952Z,2.90
2022-08-10T18:12:02.400Z,2.90
2022-08-10T18:14:38.906Z,2.85
2022-08-10T18:17:13.116Z,3.17
2022-08-10T18:19:45.105Z,3.03
2022-08-10T18:22:13.757Z,2.95
2022-08-10T18:24:42.662Z,2.55
2022-08-10T18:27:12.334Z,2.95
2022-08-10T18:29:42.527Z,2.70
2022-08-10T18:32:11.616Z,2.90
2022-08-10T18:34:40.989Z,3.15
2022-08-10T18:37:10.456Z,2.63
2022-08-10T18:39:40.724Z,2.60
2022-08-10T18:42:12.453Z,2.60
2022-08-10T18:44:47.417Z,3.17
2022-08-10T18:47:19.825Z,2.75
2022-08-10T18:50:05.741Z,3.20
2022-08-10T18:52:34.685Z,2.80
2022-08-10T18:55:14.243Z,2.40
2022-08-10T18:58:10.394Z,2.78
2022-08-10T19:01:09.392Z,2.90
2022-08-10T19:03:54.573Z,2.88
2022-08-10T19:06:52.027Z,3.42
2022-08-10T19:09:45.601Z,2.75
2022-08-10T19:12:40.405Z,3.50
2022-08-10T19:15:24.060Z,3.30
2022-08-10T19:18:07.704Z,2.72
2022-08-10T19:20:50.931Z,3.00
2022-08-10T19:23:33.653Z,3.03
2022-08-10T19:26:42.031Z,2.80
2022-08-10T19:29:10.949Z,3.45
2022-08-10T19:32:10.752Z,2.75
2022-08-10T19:34:37.464Z,3.10
2022-08-10T19:37:16.563Z,2.67
2022-08-10T19:39:50.371Z,2.90
2022-08-10T19:42:31.461Z,4.07
2022-08-10T19:46:01.275Z,3.92
2022-08-10T19:48:38.150Z,3.25
2022-08-10T19:51:13.899Z,2.83
2022-08-10T19:54:02.032Z,2.97
2022-08-10T19:56:50.157Z,3.03
2022-08-10T20:00:16.600Z,2.53
2022-08-10T20:02:27.030Z,2.75
2022-08-10T20:05:12.325Z,3.10
2022-08-10T20:08:05.293Z,2.63
2022-08-10T20:10:47.660Z,3.45
2022-08-10T20:13:40.625Z,3.08
2022-08-10T20:16:11.784Z,3.45
2022-08-10T20:18:53.932Z,3.22
2022-08-10T20:21:36.533Z,3.28
2022-08-10T20:24:11.336Z,2.92
2022-08-10T20:26:55.117Z,2.67
2022-08-10T20:29:58.229Z,3.07
2022-08-10T20:32:25.575Z,3.25
2022-08-10T20:35:08.157Z,2.90
2022-08-10T20:38:04.136Z,3.33
2022-08-10T20:40:47.348Z,2.60
2022-08-10T20:43:45.696Z,2.70
2022-08-10T20:46:27.961Z,2.90
2022-08-10T20:48:54.669Z,2.60
2022-08-10T20:51:59.297Z,2.90
2022-08-10T20:54:16.161Z,3.13
2022-08-10T20:56:54.745Z,2.60
2022-08-10T21:00:04.592Z,2.72
2022-08-10T21:02:48.722Z,3.10
2022-08-10T21:05:25.397Z,3.13
2022-08-10T21:08:25.424Z,2.95
2022-08-10T21:11:36.301Z,2.50
2022-08-10T21:14:10.726Z,2.67
2022-08-10T21:16:45.259Z,2.75
2022-08-10T21:19:34.708Z,2.47
2022-08-10T21:22:26.383Z,2.58
2022-08-10T21:25:15.701Z,2.50
2022-08-10T21:28:04.230Z,2.50
2022-08-10T21:30:46.025Z,2.50
2022-08-10T21:33:36.969Z,2.40
2022-08-10T21:36:23.578Z,2.33
2022-08-10T21:39:07.618Z,2.20
2022-08-10T21:42:16.931Z,2.40
2022-08-10T21:45:58.693Z,2.38
2022-08-10T21:48:57.069Z,1.90
2022-08-10T21:52:01.757Z,2.08
2022-08-10T21:55:03.108Z,2.90
2022-08-10T21:58:08.789Z,2.90
2022-08-10T22:01:13.421Z,2.63
2022-08-10T22:04:01.169Z,2.35
2022-08-10T22:06:52.589Z,2.47
2022-08-10T22:09:45.896Z,2.97
2022-08-10T22:12:34.283Z,2.28
2022-08-10T22:16:03.344Z,1.83
2022-08-10T22:18:53.746Z,2.30
2022-08-10T22:22:27.815Z,2.00
2022-08-10T22:25:35.637Z,2.20
2022-08-10T22:28:20.976Z,2.17
2022-08-10T22:31:32.995Z,1.98
2022-08-10T22:34:59.120Z,2.58
2022-08-10T22:37:57.143Z,2.17
2022-08-10T22:40:44.281Z,2.05
2022-08-10T22:43:42.432Z,2.20
2022-08-10T22:46:46.499Z,2.25
2022-08-10T22:49:21.233Z,1.90
2022-08-10T22:52:19.480Z,2.00
2022-08-10T22:55:16.092Z,1.65
2022-08-10T22:58:06.651Z,1.58
2022-08-10T23:00:34.482Z,2.00
2022-08-10T23:03:13.373Z,2.20
2022-08-10T23:05:57.606Z,1.70
2022-08-10T23:08:30.647Z,1.60
2022-08-10T23:11:04.457Z,1.67
2022-08-10T23:13:36.049Z,1.93
2022-08-10T23:16:37.519Z,2.67
2022-08-10T23:19:13.348Z,1.85
2022-08-10T23:22:03.761Z,1.90
2022-08-10T23:24:34.433Z,1.85
2022-08-10T23:27:12.501Z,1.92
2022-08-10T23:30:09.708Z,1.85
2022-08-10T23:32:43.320Z,1.75
2022-08-10T23:36:31.312Z,2.55
2022-08-10T23:38:03.645Z,2.10
2022-08-10T23:40:31.536Z,2.10
2022-08-10T23:42:59.523Z,2.47
2022-08-10T23:45:29.044Z,2.28
2022-08-10T23:48:18.794Z,2.47
2022-08-10T23:50:53.173Z,2.13
2022-08-10T23:53:37.143Z,2.42
2022-08-10T23:56:14.429Z,2.38
2022-08-10T23:58:48.119Z,2.30
